createdAt,value
2018-05-26T00:00:32.487Z,66.67
2018-05-26T00:02:58.879Z,67.06
2018-05-26T00:05:25.282Z,67.31
2018-05-26T00:07:52.477Z,67.51
2018-05-26T00:10:19.182Z,67.31
2018-05-26T00:12:45.543Z,67.92
2018-05-26T00:15:11.949Z,68.11
2018-05-26T00:17:38.378Z,69.46
2018-05-26T00:20:04.761Z,70.14
2018-05-26T00:22:31.178Z,70.95
2018-05-26T00:24:57.652Z,71.77
2018-05-26T00:27:24.106Z,72.15
2018-05-26T00:29:50.851Z,72.18
2018-05-26T00:32:17.239Z,72.25
2018-05-26T00:34:43.621Z,72.13
2018-05-26T00:37:10.041Z,71.78
2018-05-26T00:39:37.196Z,72.28
2018-05-26T00:42:03.600Z,71.93
2018-05-26T00:44:29.988Z,72.47
2018-05-26T00:46:56.509Z,72.50
2018-05-26T00:49:22.901Z,73.00
2018-05-26T00:51:49.565Z,72.97
2018-05-26T00:54:16.207Z,72.27
2018-05-26T00:56:42.579Z,71.90
2018-05-26T00:59:08.966Z,71.87
2018-05-26T01:01:36.091Z,72.05
2018-05-26T01:04:02.860Z,72.61
2018-05-26T01:06:29.358Z,72.78
2018-05-26T01:08:56.104Z,72.88
2018-05-26T01:11:22.536Z,73.44
2018-05-26T01:13:48.909Z,74.11
2018-05-26T01:16:15.339Z,74.55
2018-05-26T01:18:41.765Z,74.39
2018-05-26T01:21:08.241Z,74.91
2018-05-26T01:23:34.772Z,75.25
2018-05-26T01:26:01.248Z,74.92
2018-05-26T01:28:28.470Z,73.86
2018-05-26T01:30:54.915Z,73.90
2018-05-26T01:33:21.283Z,74.10
2018-05-26T01:35:47.845Z,74.39
2018-05-26T01:38:14.243Z,74.41
2018-05-26T01:40:41.441Z,74.69
2018-05-26T01:43:08.024Z,75.06
2018-05-26T01:45:35.180Z,75.31
2018-05-26T01:48:02.378Z,75.87
2018-05-26T01:50:28.884Z,75.55
2018-05-26T01:52:55.393Z,75.18
2018-05-26T01:55:22.589Z,74.75
2018-05-26T01:57:49.003Z,74.71
2018-05-26T02:00:15.440Z,75.19
2018-05-26T02:02:42.162Z,75.74
2018-05-26T02:05:08.648Z,75.51
2018-05-26T02:07:35.334Z,75.46
2018-05-26T02:10:02.513Z,75.27
2018-05-26T02:12:29.016Z,75.49
2018-05-26T02:14:55.379Z,76.23
2018-05-26T02:17:21.811Z,76.68
2018-05-26T02:19:48.173Z,76.84
2018-05-26T02:22:14.513Z,77.14
2018-05-26T02:24:40.912Z,77.27
2018-05-26T02:27:07.379Z,77.51
2018-05-26T02:29:33.843Z,77.52
2018-05-26T02:32:00.302Z,77.10
2018-05-26T02:34:26.734Z,76.51
2018-05-26T02:36:53.184Z,76.57
2018-05-26T02:39:19.674Z,77.51
2018-05-26T02:41:46.315Z,78.05
2018-05-26T02:44:13.437Z,78.69
2018-05-26T02:46:39.875Z,78.93
2018-05-26T02:49:07.131Z,79.33
2018-05-26T02:51:34.267Z,79.58
2018-05-26T02:54:00.697Z,79.54
2018-05-26T02:56:27.065Z,79.41
2018-05-26T02:58:54.269Z,79.65
2018-05-26T03:01:22.049Z,79.09
2018-05-26T03:03:49.108Z,78.99
2018-05-26T03:06:22.625Z,79.12
2018-05-26T03:08:55.157Z,79.50
2018-05-26T03:11:27.712Z,79.97
2018-05-26T03:14:00.268Z,80.24
2018-05-26T03:16:26.711Z,80.21
2018-05-26T03:18:53.358Z,79.82
2018-05-26T03:21:19.750Z,79.23
2018-05-26T03:23:46.153Z,79.51
2018-05-26T03:26:12.835Z,79.69
2018-05-26T03:28:39.245Z,79.66
2018-05-26T03:31:06.454Z,79.48
2018-05-26T03:33:32.852Z,79.43
2018-05-26T03:35:59.310Z,79.93
2018-05-26T03:38:26.026Z,79.59
2018-05-26T03:40:52.431Z,79.65
2018-05-26T03:43:19.661Z,79.54
2018-05-26T03:45:46.041Z,78.83
2018-05-26T03:48:12.470Z,78.34
2018-05-26T03:50:38.986Z,78.78
2018-05-26T03:53:06.101Z,78.47
2018-05-26T03:58:56.843Z,78.16
2018-05-26T04:01:23.258Z,77.77
2018-05-26T04:03:49.689Z,77.59
2018-05-26T04:06:16.075Z,76.91
2018-05-26T04:08:42.809Z,76.54
2018-05-26T04:11:09.194Z,75.91
2018-05-26T04:13:35.894Z,75.66
2018-05-26T04:16:02.277Z,75.72
2018-05-26T04:18:28.685Z,75.31
2018-05-26T04:20:55.239Z,75.58
2018-05-26T04:23:21.643Z,76.13
2018-05-26T04:25:48.351Z,76.14
2018-05-26T04:28:14.749Z,75.71
2018-05-26T04:30:41.182Z,75.85
2018-05-26T04:33:08.377Z,75.67
2018-05-26T04:35:34.787Z,75.38
2018-05-26T04:38:01.938Z,74.43
2018-05-26T04:40:29.099Z,73.42
2018-05-26T04:42:56.560Z,73.07
2018-05-26T04:45:22.998Z,74.05
2018-05-26T04:47:49.369Z,74.52
2018-05-26T04:50:15.815Z,74.17
2018-05-26T04:52:42.280Z,74.20
2018-05-26T04:55:09.425Z,73.72
2018-05-26T04:57:36.681Z,73.23
2018-05-26T05:00:03.840Z,72.69
2018-05-26T05:02:30.996Z,73.48
2018-05-26T05:04:57.408Z,73.03
2018-05-26T05:07:24.672Z,72.27
2018-05-26T05:09:51.826Z,72.64
2018-05-26T05:12:18.262Z,71.75
2018-05-26T05:14:44.666Z,70.71
2018-05-26T05:17:11.049Z,71.13
2018-05-26T05:19:37.512Z,70.36
2018-05-26T05:22:03.937Z,69.78
2018-05-26T05:24:30.298Z,70.07
2018-05-26T05:26:57.433Z,68.98
2018-05-26T05:29:23.896Z,68.70
2018-05-26T05:31:51.144Z,68.99
2018-05-26T05:34:18.509Z,68.79
2018-05-26T05:36:45.657Z,68.29
2018-05-26T05:39:12.193Z,67.55
2018-05-26T05:41:38.584Z,66.74
2018-05-26T05:44:05.003Z,66.99
2018-05-26T05:46:31.386Z,67.26
2018-05-26T05:48:58.615Z,66.60
2018-05-26T05:51:25.165Z,65.26
2018-05-26T05:53:52.289Z,64.69
2018-05-26T05:56:19.495Z,64.57
2018-05-26T05:58:45.908Z,63.75
2018-05-26T06:01:13.059Z,63.53
2018-05-26T06:03:39.803Z,64.75
2018-05-26T06:06:06.205Z,65.38
2018-05-26T06:08:32.578Z,64.97
2018-05-26T06:10:58.959Z,63.87
2018-05-26T06:13:26.142Z,64.06
2018-05-26T06:15:53.298Z,64.23
2018-05-26T06:18:20.039Z,66.13
2018-05-26T06:20:46.776Z,65.41
2018-05-26T06:23:14.233Z,65.43
2018-05-26T06:25:40.682Z,66.52
2018-05-26T06:28:07.116Z,66.97
2018-05-26T06:30:33.694Z,65.81
2018-05-26T06:33:00.140Z,65.48
2018-05-26T06:35:26.808Z,65.62
2018-05-26T06:37:53.961Z,65.54
2018-05-26T06:40:20.386Z,65.22
2018-05-26T06:42:47.539Z,64.05
2018-05-26T06:45:14.694Z,62.63
2018-05-26T06:47:41.150Z,62.68
2018-05-26T06:50:07.961Z,60.95
2018-05-26T06:52:35.205Z,60.98
2018-05-26T06:55:02.318Z,61.18
2018-05-26T06:57:29.009Z,59.53
2018-05-26T06:59:55.373Z,57.87
2018-05-26T07:02:21.750Z,58.54
2018-05-26T07:04:48.505Z,58.73
2018-05-26T07:07:15.713Z,57.09
2018-05-26T07:09:42.080Z,57.93
2018-05-26T07:12:09.227Z,56.79
2018-05-26T07:14:36.697Z,56.46
2018-05-26T07:17:03.809Z,56.18
2018-05-26T07:19:30.297Z,57.49
2018-05-26T07:21:56.849Z,56.04
2018-05-26T07:24:23.274Z,56.10
2018-05-26T07:26:49.669Z,55.47
2018-05-26T07:29:16.800Z,54.62
2018-05-26T07:31:43.219Z,53.93
2018-05-26T07:34:09.577Z,52.71
2018-05-26T07:36:35.992Z,53.40
2018-05-26T07:39:02.516Z,53.11
2018-05-26T07:41:28.993Z,52.91
2018-05-26T07:43:56.150Z,51.92
2018-05-26T07:46:22.514Z,50.10
2018-05-26T07:48:48.890Z,49.41
2018-05-26T07:51:16.030Z,48.51
2018-05-26T07:53:43.220Z,48.97
2018-05-26T07:56:09.657Z,48.72
2018-05-26T07:58:36.036Z,47.79
2018-05-26T08:01:02.418Z,48.29
2018-05-26T08:03:28.877Z,47.74
2018-05-26T08:05:55.252Z,47.89
2018-05-26T08:08:21.645Z,48.24
2018-05-26T08:10:48.061Z,48.73
2018-05-26T08:13:14.473Z,47.93
2018-05-26T08:15:41.621Z,49.59
2018-05-26T08:18:08.050Z,49.37
2018-05-26T08:20:35.261Z,48.34
2018-05-26T08:23:01.665Z,49.04
2018-05-26T08:25:28.293Z,47.60
2018-05-26T08:27:54.763Z,48.01
2018-05-26T08:30:21.214Z,48.01
2018-05-26T08:32:47.724Z,45.66
2018-05-26T08:35:14.081Z,45.23
2018-05-26T08:37:40.447Z,44.70
2018-05-26T08:40:07.181Z,44.41
2018-05-26T08:42:33.632Z,45.44
2018-05-26T08:45:00.057Z,45.78
2018-05-26T08:47:26.422Z,44.51
2018-05-26T08:49:52.887Z,44.91
2018-05-26T08:52:19.234Z,44.33
2018-05-26T08:54:46.825Z,43.67
2018-05-26T08:57:13.295Z,44.73
2018-05-26T08:59:39.702Z,44.11
2018-05-26T09:02:06.098Z,43.77
2018-05-26T09:04:33.255Z,43.20
2018-05-26T09:06:59.721Z,43.45
2018-05-26T09:09:26.217Z,42.57
2018-05-26T09:11:53.346Z,41.31
2018-05-26T09:14:19.687Z,42.04
2018-05-26T09:16:46.835Z,41.72
2018-05-26T09:19:13.945Z,40.52
2018-05-26T09:21:40.438Z,40.00
2018-05-26T09:24:07.167Z,41.14
2018-05-26T09:26:34.270Z,42.22
2018-05-26T09:29:00.641Z,42.39
2018-05-26T09:31:27.730Z,40.99
2018-05-26T09:33:54.239Z,39.97
2018-05-26T09:36:20.693Z,40.07
2018-05-26T09:38:47.096Z,40.89
2018-05-26T09:41:14.264Z,39.26
2018-05-26T09:43:40.755Z,37.52
2018-05-26T09:46:07.093Z,38.04
2018-05-26T09:48:33.529Z,38.13
2018-05-26T09:53:53.157Z,37.48
2018-05-26T09:56:19.519Z,36.75
2018-05-26T09:58:45.863Z,36.18
2018-05-26T10:01:12.293Z,34.89
2018-05-26T10:03:38.669Z,35.33
2018-05-26T10:06:05.782Z,36.05
2018-05-26T10:08:32.141Z,35.63
2018-05-26T10:10:59.227Z,35.07
2018-05-26T10:13:25.683Z,35.52
2018-05-26T10:15:52.131Z,35.34
2018-05-26T10:18:18.519Z,34.45
2018-05-26T10:20:44.913Z,33.79
2018-05-26T10:23:12.228Z,34.38
2018-05-26T10:25:38.612Z,34.40
2018-05-26T10:28:05.758Z,33.89
2018-05-26T10:30:33.017Z,33.13
2018-05-26T10:33:00.236Z,32.78
2018-05-26T10:35:26.703Z,33.58
2018-05-26T10:37:53.145Z,33.50
2018-05-26T10:40:19.617Z,31.63
2018-05-26T10:42:46.099Z,31.37
2018-05-26T10:45:13.201Z,31.51
2018-05-26T10:47:39.581Z,31.97
2018-05-26T10:50:06.053Z,32.00
2018-05-26T10:52:32.495Z,31.58
2018-05-26T10:54:58.923Z,32.03
2018-05-26T10:57:25.344Z,33.36
2018-05-26T10:59:51.720Z,32.89
2018-05-26T11:02:18.081Z,33.32
2018-05-26T11:04:44.482Z,32.18
2018-05-26T11:07:10.892Z,32.15
2018-05-26T11:09:37.349Z,31.68
2018-05-26T11:12:04.983Z,30.86
2018-05-26T11:14:31.451Z,30.49
2018-05-26T11:16:58.706Z,30.81
2018-05-26T11:19:25.924Z,30.92
2018-05-26T11:21:52.447Z,30.85
2018-05-26T11:24:19.065Z,30.66
2018-05-26T11:26:45.375Z,31.75
2018-05-26T11:29:11.801Z,31.89
2018-05-26T11:31:38.931Z,31.19
2018-05-26T11:34:05.401Z,30.19
2018-05-26T11:36:31.921Z,30.45
2018-05-26T11:38:59.034Z,31.59
2018-05-26T11:41:25.722Z,30.69
2018-05-26T11:43:52.929Z,29.40
2018-05-26T11:46:19.327Z,30.31
2018-05-26T11:48:45.688Z,29.61
2018-05-26T11:51:12.054Z,29.95
2018-05-26T11:53:39.518Z,29.49
2018-05-26T11:56:05.973Z,28.89
2018-05-26T11:58:32.378Z,30.21
2018-05-26T12:00:59.525Z,31.07
2018-05-26T12:03:26.884Z,30.35
2018-05-26T12:05:54.082Z,31.07
2018-05-26T12:08:20.500Z,30.72
2018-05-26T12:10:46.996Z,30.75
2018-05-26T12:13:13.332Z,30.90
2018-05-26T12:15:40.465Z,30.16
2018-05-26T12:18:07.614Z,30.78
2018-05-26T12:20:34.713Z,29.88
2018-05-26T12:23:01.186Z,29.36
2018-05-26T12:25:27.598Z,30.09
2018-05-26T12:27:54.248Z,29.74
2018-05-26T12:30:20.728Z,28.01
2018-05-26T12:32:47.114Z,28.49
2018-05-26T12:35:13.658Z,27.43
2018-05-26T12:37:40.320Z,26.79
2018-05-26T12:40:07.536Z,26.20
2018-05-26T12:42:33.970Z,26.82
2018-05-26T12:45:00.421Z,27.86
2018-05-26T12:47:27.623Z,27.67
2018-05-26T12:49:54.332Z,26.75
2018-05-26T12:52:21.526Z,26.62
2018-05-26T12:54:48.277Z,25.71
2018-05-26T12:57:14.657Z,25.54
2018-05-26T12:59:41.790Z,25.35
2018-05-26T13:02:09.055Z,25.47
2018-05-26T13:04:35.438Z,24.67
2018-05-26T13:07:01.888Z,25.51
2018-05-26T13:09:29.025Z,24.85
2018-05-26T13:11:55.510Z,24.54
2018-05-26T13:14:21.891Z,24.20
2018-05-26T13:16:48.396Z,23.91
2018-05-26T13:19:14.961Z,22.85
2018-05-26T13:21:41.389Z,22.05
2018-05-26T13:24:07.942Z,20.19
2018-05-26T13:26:34.303Z,20.11
2018-05-26T13:29:01.625Z,19.31
2018-05-26T13:31:28.782Z,19.65
2018-05-26T13:33:55.170Z,19.62
2018-05-26T13:36:22.194Z,18.21
2018-05-26T13:38:48.606Z,18.07
2018-05-26T13:41:15.737Z,17.84
2018-05-26T13:43:42.105Z,16.44
2018-05-26T13:46:09.254Z,16.43
2018-05-26T13:48:36.358Z,17.33
2018-05-26T13:51:02.776Z,17.31
2018-05-26T13:53:29.314Z,16.03
2018-05-26T13:55:55.706Z,16.43
2018-05-26T13:58:22.338Z,16.02
2018-05-26T14:00:49.695Z,14.76
2018-05-26T14:03:16.795Z,15.89
2018-05-26T14:05:43.169Z,15.13
2018-05-26T14:08:10.503Z,16.44
2018-05-26T14:10:36.837Z,14.43
2018-05-26T14:13:03.204Z,14.45
2018-05-26T14:15:29.566Z,15.56
2018-05-26T14:17:55.994Z,15.29
2018-05-26T14:20:22.423Z,14.87
2018-05-26T14:22:48.786Z,17.06
2018-05-26T14:25:15.262Z,16.07
2018-05-26T14:27:42.097Z,14.45
2018-05-26T14:30:08.566Z,15.37
2018-05-26T14:32:34.933Z,15.46
2018-05-26T14:35:01.446Z,14.93
2018-05-26T14:37:27.858Z,14.13
2018-05-26T14:39:54.233Z,15.35
2018-05-26T14:42:21.335Z,13.89
2018-05-26T14:44:47.942Z,14.01
2018-05-26T14:47:15.401Z,13.84
2018-05-26T14:49:42.654Z,13.75
2018-05-26T14:52:09.782Z,12.39
2018-05-26T14:54:36.893Z,12.39
2018-05-26T14:57:04.189Z,12.18
2018-05-26T14:59:30.565Z,14.28
2018-05-26T15:01:57.043Z,15.43
2018-05-26T15:04:23.417Z,17.58
2018-05-26T15:06:49.890Z,17.38
2018-05-26T15:09:16.518Z,18.42
2018-05-26T15:11:42.917Z,19.43
2018-05-26T15:14:09.305Z,22.05
2018-05-26T15:16:36.093Z,23.32
2018-05-26T15:19:02.482Z,24.42
2018-05-26T15:21:28.863Z,25.10
2018-05-26T15:23:55.386Z,25.01
2018-05-26T15:26:21.779Z,24.93
2018-05-26T15:28:48.143Z,25.17
2018-05-26T15:31:14.881Z,25.30
2018-05-26T15:33:41.264Z,25.60
2018-05-26T15:36:07.682Z,25.75
2018-05-26T15:38:34.400Z,25.91
2018-05-26T15:41:00.790Z,26.61
2018-05-26T15:43:27.558Z,26.06
2018-05-26T15:45:54.645Z,25.84
2018-05-26T15:48:21.246Z,26.93
2018-05-26T15:50:47.601Z,26.27
2018-05-26T15:53:13.979Z,25.84
2018-05-26T15:55:40.413Z,26.38
2018-05-26T15:58:06.981Z,26.00
2018-05-26T16:00:33.341Z,26.41
2018-05-26T16:03:00.700Z,26.61
2018-05-26T16:05:27.068Z,25.17
2018-05-26T16:07:54.216Z,25.00
2018-05-26T16:10:20.733Z,24.55
2018-05-26T16:12:47.114Z,24.42
2018-05-26T16:15:13.553Z,24.33
2018-05-26T16:17:40.588Z,23.45
2018-05-26T16:20:08.065Z,23.55
2018-05-26T16:22:34.421Z,23.47
2018-05-26T16:25:00.770Z,23.84
2018-05-26T16:27:27.127Z,23.39
2018-05-26T16:29:54.278Z,24.24
2018-05-26T16:32:21.440Z,24.80
2018-05-26T16:34:47.864Z,24.66
2018-05-26T16:37:14.978Z,24.79
2018-05-26T16:39:41.420Z,24.81
2018-05-26T16:42:07.868Z,24.11
2018-05-26T16:44:35.130Z,24.00
2018-05-26T16:47:02.241Z,23.21
2018-05-26T16:49:28.745Z,23.52
2018-05-26T16:51:55.152Z,23.92
2018-05-26T16:54:22.603Z,24.15
2018-05-26T16:56:49.960Z,23.85
2018-05-26T16:59:17.053Z,23.74
2018-05-26T17:01:43.413Z,22.46
2018-05-26T17:04:09.786Z,22.12
2018-05-26T17:06:36.202Z,22.09
2018-05-26T17:09:03.407Z,22.98
2018-05-26T17:11:29.798Z,22.55
2018-05-26T17:13:56.191Z,24.62
2018-05-26T17:16:23.337Z,26.18
2018-05-26T17:18:49.735Z,27.38
2018-05-26T17:21:16.134Z,27.76
2018-05-26T17:23:43.233Z,27.39
2018-05-26T17:26:09.594Z,27.33
2018-05-26T17:28:35.949Z,27.22
2018-05-26T17:31:02.340Z,27.36
2018-05-26T17:33:28.742Z,27.12
2018-05-26T17:35:55.117Z,28.07
2018-05-26T17:38:21.491Z,28.23
2018-05-26T17:40:47.912Z,29.10
2018-05-26T17:43:14.283Z,30.41
2018-05-26T17:45:40.673Z,31.75
2018-05-26T17:48:07.053Z,32.36
2018-05-26T17:50:33.474Z,32.85
2018-05-26T17:52:59.846Z,32.77
2018-05-26T17:55:27.004Z,32.88
2018-05-26T17:57:54.130Z,33.05
2018-05-26T18:00:21.422Z,33.46
2018-05-26T18:02:47.805Z,33.97
2018-05-26T18:05:14.236Z,34.36
2018-05-26T18:07:40.600Z,34.47
2018-05-26T18:10:07.734Z,35.59
2018-05-26T18:12:34.949Z,35.98
2018-05-26T18:15:01.391Z,35.41
2018-05-26T18:17:28.534Z,35.63
2018-05-26T18:19:54.992Z,36.03
2018-05-26T18:22:21.450Z,35.69
2018-05-26T18:24:48.575Z,35.23
2018-05-26T18:27:15.038Z,35.66
2018-05-26T18:29:42.335Z,35.72
2018-05-26T18:32:08.753Z,36.26
2018-05-26T18:34:35.311Z,37.52
2018-05-26T18:37:01.684Z,37.18
2018-05-26T18:39:28.834Z,37.20
2018-05-26T18:41:55.956Z,37.89
2018-05-26T18:44:22.326Z,37.77
2018-05-26T18:46:49.459Z,38.62
2018-05-26T18:49:16.754Z,38.97
2018-05-26T18:51:43.100Z,39.65
2018-05-26T18:54:09.489Z,39.73
2018-05-26T18:56:36.676Z,40.13
2018-05-26T18:59:03.033Z,41.02
2018-05-26T19:01:29.433Z,41.96
2018-05-26T19:03:55.797Z,42.04
2018-05-26T19:06:22.181Z,42.61
2018-05-26T19:08:48.601Z,43.27
2018-05-26T19:11:15.752Z,43.74
2018-05-26T19:13:42.878Z,44.10
2018-05-26T19:16:09.223Z,44.38
2018-05-26T19:18:36.381Z,44.64
2018-05-26T19:21:02.799Z,44.87
2018-05-26T19:23:30.167Z,45.13
2018-05-26T19:25:57.305Z,45.60
2018-05-26T19:28:31.391Z,46.13
2018-05-26T19:30:57.844Z,46.50
2018-05-26T19:33:24.173Z,46.48
2018-05-26T19:35:50.834Z,46.91
2018-05-26T19:38:18.185Z,47.36
2018-05-26T19:40:45.405Z,47.53
2018-05-26T19:43:11.817Z,47.41
2018-05-26T19:45:38.304Z,48.04
2018-05-26T19:48:05.407Z,48.60
2018-05-26T19:50:31.866Z,48.91
2018-05-26T19:52:58.965Z,49.40
2018-05-26T19:55:25.369Z,49.37
2018-05-26T19:57:52.494Z,49.44
2018-05-26T20:00:19.638Z,49.09
2018-05-26T20:02:46.415Z,49.45
2018-05-26T20:05:12.790Z,49.37
2018-05-26T20:07:39.190Z,50.18
2018-05-26T20:10:05.588Z,50.57
2018-05-26T20:12:32.788Z,51.08
2018-05-26T20:14:59.167Z,51.15
2018-05-26T20:17:26.295Z,51.87
2018-05-26T20:19:52.972Z,52.86
2018-05-26T20:22:20.207Z,53.29
2018-05-26T20:24:47.350Z,53.40
2018-05-26T20:29:47.739Z,53.73
2018-05-26T20:32:14.151Z,53.60
2018-05-26T20:37:12.857Z,54.06
2018-05-26T20:39:39.241Z,54.23
2018-05-26T20:42:05.698Z,54.93
2018-05-26T20:44:33.183Z,55.40
2018-05-26T20:49:33.614Z,55.20
2018-05-26T20:52:00.779Z,54.93
2018-05-26T20:54:27.187Z,55.50
2018-05-26T20:56:54.365Z,55.62
2018-05-26T20:59:20.730Z,55.47
2018-05-26T21:01:47.160Z,55.66
2018-05-26T21:04:13.603Z,56.13
2018-05-26T21:06:40.746Z,56.75
2018-05-26T21:09:07.608Z,56.89
2018-05-26T21:11:33.951Z,57.06
2018-05-26T21:14:01.176Z,56.84
2018-05-26T21:16:27.685Z,56.92
2018-05-26T21:18:54.077Z,57.08
2018-05-26T21:21:21.397Z,56.72
2018-05-26T21:23:48.046Z,56.94
2018-05-26T21:26:14.509Z,56.86
2018-05-26T21:28:41.656Z,56.83
2018-05-26T21:31:08.825Z,57.00
2018-05-26T21:33:35.274Z,57.42
2018-05-26T21:36:01.885Z,57.57
2018-05-26T21:38:29.029Z,58.26
2018-05-26T21:40:56.191Z,58.94
2018-05-26T21:43:22.690Z,59.21
2018-05-26T21:45:49.121Z,59.57
2018-05-26T21:48:15.605Z,59.44
2018-05-26T21:50:42.126Z,59.35
2018-05-26T21:53:08.481Z,59.58
2018-05-26T21:55:35.020Z,59.52
2018-05-26T21:58:01.750Z,59.51
2018-05-26T22:00:28.191Z,59.62
2018-05-26T22:02:54.601Z,59.79
2018-05-26T22:05:21.073Z,60.35
2018-05-26T22:07:47.455Z,60.67
2018-05-26T22:10:14.577Z,60.58
2018-05-26T22:12:41.036Z,60.73
2018-05-26T22:15:08.886Z,60.47
2018-05-26T22:17:36.031Z,60.67
2018-05-26T22:20:02.457Z,60.95
2018-05-26T22:22:28.839Z,60.79
2018-05-26T22:24:55.242Z,61.56
2018-05-26T22:27:22.361Z,61.42
2018-05-26T22:29:50.246Z,61.03
2018-05-26T22:32:17.359Z,61.22
2018-05-26T22:34:43.795Z,61.99
2018-05-26T22:37:10.215Z,62.58
2018-05-26T22:39:37.382Z,63.08
2018-05-26T22:42:04.946Z,63.79
2018-05-26T22:44:32.861Z,63.24
2018-05-26T22:47:01.343Z,63.21
2018-05-26T22:49:29.388Z,63.81
2018-05-26T22:51:57.654Z,64.01
2018-05-26T22:54:25.705Z,63.50
2018-05-26T22:56:52.425Z,63.72
2018-05-26T22:59:18.822Z,63.74
2018-05-26T23:01:46.011Z,63.46
2018-05-26T23:04:12.407Z,63.44
2018-05-26T23:06:39.621Z,63.40
2018-05-26T23:09:06.225Z,64.00
2018-05-26T23:11:32.594Z,63.96
2018-05-26T23:13:59.014Z,64.60
2018-05-26T23:16:25.703Z,64.78
2018-05-26T23:18:52.151Z,65.24
2018-05-26T23:21:18.574Z,65.38
2018-05-26T23:23:44.949Z,65.91
2018-05-26T23:26:11.635Z,65.55
2018-05-26T23:28:38.778Z,65.95
2018-05-26T23:31:06.366Z,66.22
2018-05-26T23:33:32.781Z,66.50
2018-05-26T23:35:59.145Z,66.94
2018-05-26T23:38:26.297Z,67.06
2018-05-26T23:40:52.899Z,67.07
2018-05-26T23:43:19.286Z,66.96
2018-05-26T23:45:45.966Z,66.66
2018-05-26T23:48:13.069Z,66.94
2018-05-26T23:50:39.506Z,67.07
2018-05-26T23:53:06.049Z,67.44
2018-05-26T23:55:34.153Z,67.07
2018-05-26T23:58:01.282Z,66.72
